sensor_id;sensor_type;location;lat;lon;timestamp;noise_LAeq;noise_LA_min;noise_LA_max;noise_LA01;noise_LA95
79288;Laerm;68737;53.946;27.634;2024-01-15T00:02:19;46.102867;36.095207;62.475040;;
79288;Laerm;68737;53.946;27.634;2024-01-15T00:04:49;39.521721;35.277260;61.773708;;
79288;Laerm;68737;53.946;27.634;2024-01-15T00:07:19;39.668861;35.037514;62.950050;;
79288;Laerm;68737;53.946;27.634;2024-01-15T00:09:49;38.546753;35.035408;61.145012;;
79288;Laerm;68737;53.946;27.634;2024-01-15T00:12:19;38.682762;35.630585;57.117203;;
79288;Laerm;68737;53.946;27.634;2024-01-15T00:14:49;41.293823;35.143326;60.728085;;
79288;Laerm;68737;53.946;27.634;2024-01-15T00:17:19;38.661888;35.029633;57.739975;;
79288;Laerm;68737;53.946;27.634;2024-01-15T00:19:49;43.774162;35.193718;60.121181;;
79288;Laerm;68737;53.946;27.634;2024-01-15T00:22:19;44.925613;35.756775;62.101311;;
79288;Laerm;68737;53.946;27.634;2024-01-15T00:24:49;55.845680;35.642700;73.046844;;
79288;Laerm;68737;53.946;27.634;2024-01-15T00:27:19;37.978424;34.671410;55.619789;;
79288;Laerm;68737;53.946;27.634;2024-01-15T00:29:49;38.372421;35.435516;56.272034;;
79288;Laerm;68737;53.946;27.634;2024-01-15T00:32:21;37.854439;35.113258;55.042702;;
79288;Laerm;68737;53.946;27.634;2024-01-15T00:34:49;38.817749;35.122124;61.778019;;
79288;Laerm;68737;53.946;27.634;2024-01-15T00:37:19;47.592636;35.504944;68.544075;;
79288;Laerm;68737;53.946;27.634;2024-01-15T00:39:49;40.416855;35.487289;62.070518;;
79288;Laerm;68737;53.946;27.634;2024-01-15T00:42:21;40.470436;35.027115;67.007454;;
79288;Laerm;68737;53.946;27.634;2024-01-15T00:44:49;43.800751;35.322838;64.245964;;
79288;Laerm;68737;53.946;27.634;2024-01-15T00:47:19;38.917442;35.165588;58.831329;;
79288;Laerm;68737;53.946;27.634;2024-01-15T00:49:49;45.611336;34.937653;63.512688;;
79288;Laerm;68737;53.946;27.634;2024-01-15T00:52:19;49.598259;34.969902;66.768616;;
79288;Laerm;68737;53.946;27.634;2024-01-15T00:54:49;38.499763;35.249947;62.218582;;
79288;Laerm;68737;53.946;27.634;2024-01-15T00:57:19;38.213203;34.695831;55.446198;;
79288;Laerm;68737;53.946;27.634;2024-01-15T00:59:49;52.784119;35.178207;70.301147;;
79288;Laerm;68737;53.946;27.634;2024-01-15T01:02:19;57.420097;35.807953;85.718376;;
79288;Laerm;68737;53.946;27.634;2024-01-15T01:04:49;47.239319;35.879707;66.252075;;
79288;Laerm;68737;53.946;27.634;2024-01-15T01:07:19;47.612724;35.896690;64.245132;;
79288;Laerm;68737;53.946;27.634;2024-01-15T01:09:49;45.864212;36.049812;59.328781;;
79288;Laerm;68737;53.946;27.634;2024-01-15T01:12:19;39.904388;35.289017;54.216309;;
79288;Laerm;68737;53.946;27.634;2024-01-15T01:14:49;57.267059;36.570892;85.488884;;
79288;Laerm;68737;53.946;27.634;2024-01-15T01:17:19;47.362114;35.835434;63.579571;;
79288;Laerm;68737;53.946;27.634;2024-01-15T01:19:51;42.664650;35.569366;69.558006;;
79288;Laerm;68737;53.946;27.634;2024-01-15T01:22:19;39.707993;35.661118;59.126144;;
79288;Laerm;68737;53.946;27.634;2024-01-15T01:24:49;38.233330;35.154434;55.687195;;
79288;Laerm;68737;53.946;27.634;2024-01-15T01:27:21;39.295677;35.648087;56.436081;;
79288;Laerm;68737;53.946;27.634;2024-01-15T01:29:49;39.358322;35.478333;59.781250;;
79288;Laerm;68737;53.946;27.634;2024-01-15T01:32:19;41.338966;35.103531;63.487232;;
79288;Laerm;68737;53.946;27.634;2024-01-15T01:34:49;39.039116;35.750366;52.065956;;
79288;Laerm;68737;53.946;27.634;2024-01-15T01:37:21;42.403152;36.079414;71.044205;;
79288;Laerm;68737;53.946;27.634;2024-01-15T01:39:51;42.588188;35.516190;57.559914;;
79288;Laerm;68737;53.946;27.634;2024-01-15T01:42:19;55.490807;36.009605;70.118881;;
79288;Laerm;68737;53.946;27.634;2024-01-15T01:44:49;43.024391;35.642097;58.037827;;
79288;Laerm;68737;53.946;27.634;2024-01-15T01:47:19;45.387016;35.625717;63.393608;;
79288;Laerm;68737;53.946;27.634;2024-01-15T01:49:49;46.070885;35.332458;61.892437;;
79288;Laerm;68737;53.946;27.634;2024-01-15T01:52:19;40.031281;35.642250;58.842102;;
79288;Laerm;68737;53.946;27.634;2024-01-15T01:54:50;41.468590;36.183449;58.861809;;
79288;Laerm;68737;53.946;27.634;2024-01-15T01:57:19;41.896072;36.011032;58.619286;;
79288;Laerm;68737;53.946;27.634;2024-01-15T01:59:49;44.100677;37.761719;59.809727;;
79288;Laerm;68737;53.946;27.634;2024-01-15T02:02:19;42.153900;36.721954;55.599625;;
79288;Laerm;68737;53.946;27.634;2024-01-15T02:09:49;51.569023;36.718033;66.254547;;
79288;Laerm;68737;53.946;27.634;2024-01-15T02:12:19;51.100815;36.634506;64.491249;;
79288;Laerm;68737;53.946;27.634;2024-01-15T02:14:52;45.628357;36.266899;65.461082;;
79288;Laerm;68737;53.946;27.634;2024-01-15T02:17:20;44.321831;36.248566;60.118584;;
79288;Laerm;68737;53.946;27.634;2024-01-15T02:19:49;49.560768;37.394684;64.009293;;
79288;Laerm;68737;53.946;27.634;2024-01-15T02:24:49;41.439743;36.564407;56.371758;;
79288;Laerm;68737;53.946;27.634;2024-01-15T02:27:19;47.475479;37.596786;66.499603;;
79288;Laerm;68737;53.946;27.634;2024-01-15T02:29:49;49.134621;37.508347;63.957283;;
79288;Laerm;68737;53.946;27.634;2024-01-15T02:32:21;48.470779;36.732567;63.257103;;
79288;Laerm;68737;53.946;27.634;2024-01-15T02:34:49;49.674622;37.605141;62.488640;;
79288;Laerm;68737;53.946;27.634;2024-01-15T02:37:19;51.759720;37.749596;64.862801;;
79288;Laerm;68737;53.946;27.634;2024-01-15T02:39:49;51.238655;39.322464;63.957405;;
79288;Laerm;68737;53.946;27.634;2024-01-15T02:42:19;46.451912;41.073929;57.027283;;
79288;Laerm;68737;53.946;27.634;2024-01-15T02:44:49;49.901733;39.146317;63.430138;;
79288;Laerm;68737;53.946;27.634;2024-01-15T02:47:19;46.892021;38.399315;60.041023;;
79288;Laerm;68737;53.946;27.634;2024-01-15T02:49:50;48.394821;37.984085;63.030624;;
79288;Laerm;68737;53.946;27.634;2024-01-15T02:54:49;54.144997;38.628960;69.861115;;
79288;Laerm;68737;53.946;27.634;2024-01-15T02:57:19;53.793900;38.369019;70.490318;;
79288;Laerm;68737;53.946;27.634;2024-01-15T02:59:49;46.803696;38.261856;66.953537;;
79288;Laerm;68737;53.946;27.634;2024-01-15T03:02:19;54.668922;38.587997;68.251190;;
79288;Laerm;68737;53.946;27.634;2024-01-15T03:04:49;50.443398;39.479401;62.066841;;
79288;Laerm;68737;53.946;27.634;2024-01-15T03:07:21;44.360909;40.003998;61.695496;;
79288;Laerm;68737;53.946;27.634;2024-01-15T03:09:49;51.327034;40.510910;64.037086;;
79288;Laerm;68737;53.946;27.634;2024-01-15T03:12:20;51.618256;39.669197;65.176933;;
79288;Laerm;68737;53.946;27.634;2024-01-15T03:14:49;49.652092;41.743484;65.613693;;
79288;Laerm;68737;53.946;27.634;2024-01-15T03:17:19;53.312660;42.098053;64.301697;;
79288;Laerm;68737;53.946;27.634;2024-01-15T03:19:49;53.998016;42.053162;65.246872;;
79288;Laerm;68737;53.946;27.634;2024-01-15T03:22:19;48.497398;40.677063;65.322311;;
79288;Laerm;68737;53.946;27.634;2024-01-15T03:24:49;50.662796;42.455444;63.302715;;
79288;Laerm;68737;53.946;27.634;2024-01-15T03:27:19;46.399254;40.051239;59.341408;;
79288;Laerm;68737;53.946;27.634;2024-01-15T03:29:49;54.621010;41.140556;68.639267;;
79288;Laerm;68737;53.946;27.634;2024-01-15T03:32:19;49.845177;40.903175;64.142975;;
79288;Laerm;68737;53.946;27.634;2024-01-15T03:34:49;55.754982;40.872787;70.215958;;
79288;Laerm;68737;53.946;27.634;2024-01-15T03:37:19;52.306183;40.805969;67.661392;;
79288;Laerm;68737;53.946;27.634;2024-01-15T03:39:49;54.613686;42.598244;67.952675;;
79288;Laerm;68737;53.946;27.634;2024-01-15T03:42:19;54.602600;44.178169;64.914108;;
79288;Laerm;68737;53.946;27.634;2024-01-15T03:44:49;52.517159;40.637489;61.675568;;
79288;Laerm;68737;53.946;27.634;2024-01-15T03:47:19;50.592865;41.296097;63.403297;;
79288;Laerm;68737;53.946;27.634;2024-01-15T03:49:51;52.310951;41.628448;64.247116;;
79288;Laerm;68737;53.946;27.634;2024-01-15T03:52:19;58.383598;42.372787;72.243279;;
79288;Laerm;68737;53.946;27.634;2024-01-15T03:54:49;53.831253;41.150192;64.896133;;
79288;Laerm;68737;53.946;27.634;2024-01-15T03:57:19;56.416740;41.744461;68.907822;;
79288;Laerm;68737;53.946;27.634;2024-01-15T03:59:49;55.716499;42.404594;66.226425;;
79288;Laerm;68737;53.946;27.634;2024-01-15T04:02:19;53.883591;43.226440;64.363861;;
79288;Laerm;68737;53.946;27.634;2024-01-15T04:04:49;51.990028;42.477226;60.876770;;
79288;Laerm;68737;53.946;27.634;2024-01-15T04:07:19;53.448746;42.916687;65.891144;;
79288;Laerm;68737;53.946;27.634;2024-01-15T04:09:49;54.094490;44.374390;65.337662;;
79288;Laerm;68737;53.946;27.634;2024-01-15T04:12:19;53.695992;42.760254;66.984818;;
79288;Laerm;68737;53.946;27.634;2024-01-15T04:14:49;53.951279;43.543350;63.877403;;
79288;Laerm;68737;53.946;27.634;2024-01-15T04:17:19;54.591873;44.761261;64.676590;;
79288;Laerm;68737;53.946;27.634;2024-01-15T04:19:49;54.633888;44.870651;68.067284;;
79288;Laerm;68737;53.946;27.634;2024-01-15T04:22:19;57.361885;46.052887;66.313812;;
79288;Laerm;68737;53.946;27.634;2024-01-15T04:24:49;55.753609;46.126068;65.482697;;
79288;Laerm;68737;53.946;27.634;2024-01-15T04:27:20;56.503113;46.322594;64.369202;;
79288;Laerm;68737;53.946;27.634;2024-01-15T04:29:49;57.363846;45.242775;75.951721;;
79288;Laerm;68737;53.946;27.634;2024-01-15T04:32:19;58.918327;47.305214;70.664673;;
79288;Laerm;68737;53.946;27.634;2024-01-15T04:34:49;59.076416;47.748428;70.556488;;
79288;Laerm;68737;53.946;27.634;2024-01-15T04:37:19;60.100792;56.040596;65.652283;;
79288;Laerm;68737;53.946;27.634;2024-01-15T04:39:49;59.764126;48.512505;81.341492;;
79288;Laerm;68737;53.946;27.634;2024-01-15T04:42:19;58.324974;46.457237;68.591286;;
79288;Laerm;68737;53.946;27.634;2024-01-15T04:44:49;55.176651;48.034424;63.034309;;
79288;Laerm;68737;53.946;27.634;2024-01-15T04:47:19;60.370647;51.691658;78.699265;;
79288;Laerm;68737;53.946;27.634;2024-01-15T04:49:49;57.759743;46.531624;73.402275;;
79288;Laerm;68737;53.946;27.634;2024-01-15T04:52:19;65.273804;47.652550;88.731888;;
79288;Laerm;68737;53.946;27.634;2024-01-15T04:54:50;57.390770;46.891525;66.945343;;
79288;Laerm;68737;53.946;27.634;2024-01-15T04:57:19;55.377647;46.420097;65.289146;;
79288;Laerm;68737;53.946;27.634;2024-01-15T04:59:51;56.927254;49.561401;69.418472;;
79288;Laerm;68737;53.946;27.634;2024-01-15T05:02:19;57.015327;48.378387;66.447830;;
79288;Laerm;68737;53.946;27.634;2024-01-15T05:04:49;57.761986;50.994202;66.458748;;
79288;Laerm;68737;53.946;27.634;2024-01-15T05:07:19;56.813034;48.809311;65.519180;;
79288;Laerm;68737;53.946;27.634;2024-01-15T05:09:49;56.415985;48.226112;64.650162;;
79288;Laerm;68737;53.946;27.634;2024-01-15T05:12:19;57.766106;48.160568;66.513184;;
79288;Laerm;68737;53.946;27.634;2024-01-15T05:14:49;59.443764;46.995369;73.889137;;
79288;Laerm;68737;53.946;27.634;2024-01-15T05:17:19;58.369598;50.391632;68.263222;;
79288;Laerm;68737;53.946;27.634;2024-01-15T05:19:49;56.643211;46.381561;65.811966;;
79288;Laerm;68737;53.946;27.634;2024-01-15T05:22:19;61.115189;49.791519;75.920441;;
79288;Laerm;68737;53.946;27.634;2024-01-15T05:24:49;58.425140;51.573685;77.868942;;
79288;Laerm;68737;53.946;27.634;2024-01-15T05:27:19;59.340893;50.235481;68.528740;;
79288;Laerm;68737;53.946;27.634;2024-01-15T05:29:49;58.672379;49.505081;66.938049;;
79288;Laerm;68737;53.946;27.634;2024-01-15T05:32:19;58.419968;48.207939;68.072914;;
79288;Laerm;68737;53.946;27.634;2024-01-15T05:34:49;58.109474;50.891640;65.319946;;
79288;Laerm;68737;53.946;27.634;2024-01-15T05:37:19;60.425282;52.646919;67.881966;;
79288;Laerm;68737;53.946;27.634;2024-01-15T05:39:49;58.646194;50.701538;64.785461;;
79288;Laerm;68737;53.946;27.634;2024-01-15T05:42:19;57.906860;47.290634;66.354706;;
79288;Laerm;68737;53.946;27.634;2024-01-15T05:44:49;58.136368;49.832428;68.496887;;
79288;Laerm;68737;53.946;27.634;2024-01-15T05:47:19;60.170799;48.856171;71.600113;;
79288;Laerm;68737;53.946;27.634;2024-01-15T05:49:49;60.858162;53.024063;71.675667;;
79288;Laerm;68737;53.946;27.634;2024-01-15T05:52:19;59.277561;49.792076;71.287018;;
79288;Laerm;68737;53.946;27.634;2024-01-15T05:54:49;58.154549;49.692360;64.283112;;
79288;Laerm;68737;53.946;27.634;2024-01-15T05:57:20;59.258175;51.023956;70.239822;;
79288;Laerm;68737;53.946;27.634;2024-01-15T05:59:49;58.794769;50.870071;67.139641;;
79288;Laerm;68737;53.946;27.634;2024-01-15T06:02:19;59.672733;52.517876;64.987503;;
79288;Laerm;68737;53.946;27.634;2024-01-15T06:04:49;60.407425;52.402626;71.386993;;
79288;Laerm;68737;53.946;27.634;2024-01-15T06:07:19;59.429199;50.988579;74.900772;;
79288;Laerm;68737;53.946;27.634;2024-01-15T06:09:49;60.166531;53.770706;67.886131;;
79288;Laerm;68737;53.946;27.634;2024-01-15T06:12:19;59.688557;49.980438;69.090515;;
79288;Laerm;68737;53.946;27.634;2024-01-15T06:14:49;58.155861;46.937408;66.055862;;
79288;Laerm;68737;53.946;27.634;2024-01-15T06:17:19;57.202408;47.039482;67.184067;;
79288;Laerm;68737;53.946;27.634;2024-01-15T06:19:49;58.562691;49.097511;66.123787;;
79288;Laerm;68737;53.946;27.634;2024-01-15T06:22:19;58.367760;49.685608;66.006889;;
79288;Laerm;68737;53.946;27.634;2024-01-15T06:24:49;56.236511;48.019920;64.375267;;
79288;Laerm;68737;53.946;27.634;2024-01-15T06:27:19;64.655746;45.733658;85.697777;;
79288;Laerm;68737;53.946;27.634;2024-01-15T06:29:49;56.720299;46.563553;66.125725;;
79288;Laerm;68737;53.946;27.634;2024-01-15T06:32:19;59.253277;47.386566;68.272827;;
79288;Laerm;68737;53.946;27.634;2024-01-15T06:34:49;58.728615;50.219246;64.701996;;
79288;Laerm;68737;53.946;27.634;2024-01-15T06:37:19;58.870697;47.772995;66.400932;;
79288;Laerm;68737;53.946;27.634;2024-01-15T06:39:49;59.167561;46.775826;73.824432;;
79288;Laerm;68737;53.946;27.634;2024-01-15T06:42:19;58.909775;48.656738;73.607803;;
79288;Laerm;68737;53.946;27.634;2024-01-15T06:44:49;58.553116;47.302338;68.104370;;
79288;Laerm;68737;53.946;27.634;2024-01-15T06:47:19;56.988564;48.544662;64.796066;;
79288;Laerm;68737;53.946;27.634;2024-01-15T06:49:49;59.256199;49.208839;67.826591;;
79288;Laerm;68737;53.946;27.634;2024-01-15T06:52:19;60.009071;51.484863;66.310913;;
79288;Laerm;68737;53.946;27.634;2024-01-15T06:54:49;60.255268;47.610886;69.307678;;
79288;Laerm;68737;53.946;27.634;2024-01-15T06:57:19;57.972694;48.081459;73.743195;;
79288;Laerm;68737;53.946;27.634;2024-01-15T06:59:49;59.407040;46.908455;71.173920;;
79288;Laerm;68737;53.946;27.634;2024-01-15T07:02:19;57.983101;46.805130;69.815933;;
79288;Laerm;68737;53.946;27.634;2024-01-15T07:04:49;59.322079;47.814392;72.216522;;
79288;Laerm;68737;53.946;27.634;2024-01-15T07:07:19;60.340317;50.667770;70.569260;;
79288;Laerm;68737;53.946;27.634;2024-01-15T07:09:49;58.915062;47.684608;69.346748;;
79288;Laerm;68737;53.946;27.634;2024-01-15T07:12:19;59.154121;47.882935;69.238785;;
79288;Laerm;68737;53.946;27.634;2024-01-15T07:14:49;57.060143;46.930756;64.601624;;
79288;Laerm;68737;53.946;27.634;2024-01-15T07:17:19;56.796402;46.439377;64.910301;;
79288;Laerm;68737;53.946;27.634;2024-01-15T07:19:49;59.171200;48.927849;68.141777;;
79288;Laerm;68737;53.946;27.634;2024-01-15T07:22:19;58.173210;47.661797;68.518005;;
79288;Laerm;68737;53.946;27.634;2024-01-15T07:24:49;57.769829;47.094498;66.085632;;
79288;Laerm;68737;53.946;27.634;2024-01-15T07:27:19;60.361137;46.031952;74.223694;;
79288;Laerm;68737;53.946;27.634;2024-01-15T07:29:49;57.569450;46.637314;74.702042;;
79288;Laerm;68737;53.946;27.634;2024-01-15T07:32:19;60.521996;50.082466;70.518120;;
79288;Laerm;68737;53.946;27.634;2024-01-15T07:34:49;58.247047;47.240585;69.775360;;
79288;Laerm;68737;53.946;27.634;2024-01-15T07:37:19;58.119293;48.847786;66.820740;;
79288;Laerm;68737;53.946;27.634;2024-01-15T07:39:49;59.605354;45.562309;71.581596;;
79288;Laerm;68737;53.946;27.634;2024-01-15T07:42:19;59.124935;47.931335;69.980759;;
79288;Laerm;68737;53.946;27.634;2024-01-15T07:44:49;59.036007;47.591835;67.882828;;
79288;Laerm;68737;53.946;27.634;2024-01-15T07:47:19;58.858009;47.972084;68.231377;;
79288;Laerm;68737;53.946;27.634;2024-01-15T07:49:49;55.660057;46.232903;64.434746;;
79288;Laerm;68737;53.946;27.634;2024-01-15T07:52:19;58.859467;49.714561;66.815689;;
79288;Laerm;68737;53.946;27.634;2024-01-15T07:54:49;59.107101;47.930946;67.793106;;
79288;Laerm;68737;53.946;27.634;2024-01-15T07:57:19;57.228806;48.276428;64.767303;;
79288;Laerm;68737;53.946;27.634;2024-01-15T07:59:49;56.945831;46.915909;67.337708;;
79288;Laerm;68737;53.946;27.634;2024-01-15T08:02:19;58.673683;46.745209;69.856445;;
79288;Laerm;68737;53.946;27.634;2024-01-15T08:04:49;58.745583;47.276611;67.307053;;
79288;Laerm;68737;53.946;27.634;2024-01-15T08:07:19;57.643951;47.399094;68.449554;;
79288;Laerm;68737;53.946;27.634;2024-01-15T08:09:49;56.366447;47.592392;70.587524;;
79288;Laerm;68737;53.946;27.634;2024-01-15T08:12:19;57.537506;47.801201;68.042725;;
79288;Laerm;68737;53.946;27.634;2024-01-15T08:14:49;59.349758;47.988045;69.964958;;
79288;Laerm;68737;53.946;27.634;2024-01-15T08:17:19;58.644066;47.868309;66.642387;;
79288;Laerm;68737;53.946;27.634;2024-01-15T08:19:49;57.437622;48.664795;66.030380;;
79288;Laerm;68737;53.946;27.634;2024-01-15T08:22:19;59.261620;48.276703;69.802185;;
79288;Laerm;68737;53.946;27.634;2024-01-15T08:24:49;59.295849;48.975655;69.947281;;
79288;Laerm;68737;53.946;27.634;2024-01-15T08:27:19;59.152241;49.877312;67.436943;;
79288;Laerm;68737;53.946;27.634;2024-01-15T08:29:48;57.516640;47.960258;65.876221;;
79288;Laerm;68737;53.946;27.634;2024-01-15T08:32:18;58.874420;49.413208;65.774109;;
79288;Laerm;68737;53.946;27.634;2024-01-15T08:34:49;56.851486;47.606300;65.036850;;
79288;Laerm;68737;53.946;27.634;2024-01-15T08:37:18;59.360149;47.853531;70.653458;;
79288;Laerm;68737;53.946;27.634;2024-01-15T08:39:49;57.316132;48.109512;66.681503;;
79288;Laerm;68737;53.946;27.634;2024-01-15T08:42:19;60.365124;48.682083;71.693985;;
79288;Laerm;68737;53.946;27.634;2024-01-15T08:44:48;58.995377;47.185059;70.499100;;
79288;Laerm;68737;53.946;27.634;2024-01-15T08:47:18;59.185455;49.417458;68.501534;;
79288;Laerm;68737;53.946;27.634;2024-01-15T08:49:49;57.794754;47.560196;67.657249;;
79288;Laerm;68737;53.946;27.634;2024-01-15T08:52:20;60.699474;48.806923;73.073021;;
79288;Laerm;68737;53.946;27.634;2024-01-15T08:54:48;58.482567;47.112411;70.587791;;
79288;Laerm;68737;53.946;27.634;2024-01-15T08:57:18;60.268459;51.342850;68.268997;;
79288;Laerm;68737;53.946;27.634;2024-01-15T08:59:49;58.416946;48.283203;67.380188;;
79288;Laerm;68737;53.946;27.634;2024-01-15T09:02:19;58.939430;46.746071;66.263344;;
79288;Laerm;68737;53.946;27.634;2024-01-15T09:04:48;57.275398;48.064384;68.390373;;
79288;Laerm;68737;53.946;27.634;2024-01-15T09:07:18;58.089989;47.916725;70.921822;;
79288;Laerm;68737;53.946;27.634;2024-01-15T09:09:49;57.124710;47.201897;66.931137;;
79288;Laerm;68737;53.946;27.634;2024-01-15T09:12:19;57.930626;47.629295;66.564194;;
79288;Laerm;68737;53.946;27.634;2024-01-15T09:14:49;57.845894;46.718636;70.031395;;
79288;Laerm;68737;53.946;27.634;2024-01-15T09:17:19;57.545456;47.298553;75.561729;;
79288;Laerm;68737;53.946;27.634;2024-01-15T09:19:49;58.550743;46.799400;70.003410;;
79288;Laerm;68737;53.946;27.634;2024-01-15T09:22:19;59.534260;48.454712;72.704269;;
79288;Laerm;68737;53.946;27.634;2024-01-15T09:24:48;56.912521;47.224045;65.539505;;
79288;Laerm;68737;53.946;27.634;2024-01-15T09:27:18;57.809738;46.883202;67.611069;;
79288;Laerm;68737;53.946;27.634;2024-01-15T09:29:49;56.899628;49.553978;67.026909;;
79288;Laerm;68737;53.946;27.634;2024-01-15T09:32:19;55.893806;47.471024;65.871323;;
79288;Laerm;68737;53.946;27.634;2024-01-15T09:34:48;58.029335;45.697479;67.662453;;
79288;Laerm;68737;53.946;27.634;2024-01-15T09:37:18;59.068901;48.781982;67.798325;;
79288;Laerm;68737;53.946;27.634;2024-01-15T09:39:49;59.847210;49.733040;66.721947;;
79288;Laerm;68737;53.946;27.634;2024-01-15T09:42:19;58.154434;48.691673;65.862801;;
79288;Laerm;68737;53.946;27.634;2024-01-15T09:44:48;56.709602;46.774353;71.898254;;
79288;Laerm;68737;53.946;27.634;2024-01-15T09:47:18;59.759686;48.322502;70.826538;;
79288;Laerm;68737;53.946;27.634;2024-01-15T09:49:48;61.355667;48.888031;78.209404;;
79288;Laerm;68737;53.946;27.634;2024-01-15T09:52:19;57.278908;47.184937;67.757019;;
79288;Laerm;68737;53.946;27.634;2024-01-15T09:54:48;56.886238;46.063507;65.361458;;
79288;Laerm;68737;53.946;27.634;2024-01-15T09:57:18;57.364983;45.227539;67.129944;;
79288;Laerm;68737;53.946;27.634;2024-01-15T09:59:49;54.479988;45.265190;67.238487;;
79288;Laerm;68737;53.946;27.634;2024-01-15T10:02:18;60.302677;49.955879;72.447990;;
79288;Laerm;68737;53.946;27.634;2024-01-15T10:04:48;57.744514;48.179581;69.038185;;
79288;Laerm;68737;53.946;27.634;2024-01-15T10:07:18;58.015381;47.340370;68.186188;;
79288;Laerm;68737;53.946;27.634;2024-01-15T10:09:49;57.834198;48.825104;65.125923;;
79288;Laerm;68737;53.946;27.634;2024-01-15T10:12:18;58.369324;48.229889;68.149559;;
79288;Laerm;68737;53.946;27.634;2024-01-15T10:14:48;58.139389;46.538124;65.319542;;
79288;Laerm;68737;53.946;27.634;2024-01-15T10:17:18;57.759361;47.168259;66.344765;;
79288;Laerm;68737;53.946;27.634;2024-01-15T10:19:48;59.398529;49.617065;67.048317;;
79288;Laerm;68737;53.946;27.634;2024-01-15T10:22:18;61.812057;49.955673;72.501289;;
79288;Laerm;68737;53.946;27.634;2024-01-15T10:24:48;60.072426;48.104019;68.175919;;
79288;Laerm;68737;53.946;27.634;2024-01-15T10:27:18;58.195892;49.780876;68.379028;;
79288;Laerm;68737;53.946;27.634;2024-01-15T10:29:48;58.790833;47.723122;68.781181;;
79288;Laerm;68737;53.946;27.634;2024-01-15T10:32:18;60.077728;48.764305;73.142944;;
79288;Laerm;68737;53.946;27.634;2024-01-15T10:34:48;58.118408;47.520493;78.064621;;
79288;Laerm;68737;53.946;27.634;2024-01-15T10:37:18;60.724388;47.225044;74.129990;;
79288;Laerm;68737;53.946;27.634;2024-01-15T10:39:48;58.976250;46.082092;66.126526;;
79288;Laerm;68737;53.946;27.634;2024-01-15T10:42:18;60.609329;47.643646;72.678604;;
79288;Laerm;68737;53.946;27.634;2024-01-15T10:44:48;58.219376;46.955620;70.918404;;
79288;Laerm;68737;53.946;27.634;2024-01-15T10:47:18;58.963219;49.545692;67.366234;;
79288;Laerm;68737;53.946;27.634;2024-01-15T10:49:48;58.700600;47.260323;67.206963;;
79288;Laerm;68737;53.946;27.634;2024-01-15T10:52:18;59.418327;48.745674;65.889084;;
79288;Laerm;68737;53.946;27.634;2024-01-15T10:54:49;58.583420;49.861397;71.414993;;
79288;Laerm;68737;53.946;27.634;2024-01-15T10:57:19;59.260628;48.180481;69.181488;;
79288;Laerm;68737;53.946;27.634;2024-01-15T10:59:48;59.890018;47.157059;70.671509;;
79288;Laerm;68737;53.946;27.634;2024-01-15T11:02:18;58.616600;48.928467;70.380280;;
79288;Laerm;68737;53.946;27.634;2024-01-15T11:04:48;59.092491;50.217804;66.239716;;
79288;Laerm;68737;53.946;27.634;2024-01-15T11:07:20;60.419815;49.144989;68.520782;;
79288;Laerm;68737;53.946;27.634;2024-01-15T11:09:49;57.843399;47.851334;66.138000;;
79288;Laerm;68737;53.946;27.634;2024-01-15T11:12:18;58.760872;47.641357;71.627350;;
79288;Laerm;68737;53.946;27.634;2024-01-15T11:14:49;61.738251;48.471413;76.028107;;
79288;Laerm;68737;53.946;27.634;2024-01-15T11:17:20;62.156067;46.069832;75.172058;;
79288;Laerm;68737;53.946;27.634;2024-01-15T11:19:49;59.420692;47.928902;68.087875;;
79288;Laerm;68737;53.946;27.634;2024-01-15T11:24:48;59.028904;47.717278;66.259033;;
79288;Laerm;68737;53.946;27.634;2024-01-15T11:27:18;59.166882;49.446289;66.337677;;
79288;Laerm;68737;53.946;27.634;2024-01-15T11:29:48;59.301685;48.467590;67.463821;;
79288;Laerm;68737;53.946;27.634;2024-01-15T11:32:18;58.087517;47.494698;67.196976;;
79288;Laerm;68737;53.946;27.634;2024-01-15T11:37:19;57.341110;46.904251;69.851601;;
79288;Laerm;68737;53.946;27.634;2024-01-15T11:39:50;58.627426;46.295372;68.542130;;
79288;Laerm;68737;53.946;27.634;2024-01-15T11:42:19;60.968510;48.036613;71.484802;;
79288;Laerm;68737;53.946;27.634;2024-01-15T11:44:48;59.251225;48.458672;71.762871;;
79288;Laerm;68737;53.946;27.634;2024-01-15T11:47:23;60.379414;47.065094;75.013695;;
79288;Laerm;68737;53.946;27.634;2024-01-15T11:52:20;61.363327;50.580368;72.711227;;
79288;Laerm;68737;53.946;27.634;2024-01-15T11:55:00;59.381741;48.390366;67.019554;;
79288;Laerm;68737;53.946;27.634;2024-01-15T11:57:32;60.774975;48.523788;69.020187;;
79288;Laerm;68737;53.946;27.634;2024-01-15T11:59:48;60.582428;50.604774;67.791397;;
79288;Laerm;68737;53.946;27.634;2024-01-15T12:02:18;60.565014;48.368507;68.624893;;
79288;Laerm;68737;53.946;27.634;2024-01-15T12:04:48;60.591339;49.423599;71.131714;;
79288;Laerm;68737;53.946;27.634;2024-01-15T12:07:18;58.614548;47.218826;67.484100;;